^^
Station Historical Data
Daily Summary for January 14, 2017 Units:  Metric    English   Both
« Previous Day
Next Day »
Daily Weekly Monthly Yearly Custom
  High: Low: Average:
Temperature: 36.1 °C 19.1 °C 27.4 °C
Dew Point: 7.7 °C -2.1 °C 4.7 °C
Humidity: 46% 10% 26%
Wind Speed: 32km/h 0km/h 15.9km/h
Wind Gust: 37km/h - -
Wind- - SSW
Pressure: 1006.3 hPa 1001.6 hPa -
Precipitation: 0 mm    
Historical Graphs
 
 
Tabular Data for January 14, 2017
Time Temperature Dew Point Pressure Wind Wind Speed Wind Gust Humidity Rainfall Rate (Hourly) solar Conditions
01:03 22.1 °C 7.5 °C 1006.3 hPa SSW 17.7 km/h 22.5 km/h 39% 0 mm 0.0 W/m2
01:18 22.1 °C 7.1 °C 1006 hPa SSW 19.5 km/h 24.1 km/h 38% 0 mm 0.0 W/m2
01:23 22 °C 7.4 °C 1006 hPa SSW 19.5 km/h 24.1 km/h 39% 0 mm 0.0 W/m2
02:08 20.8 °C 7.4 °C 1005.6 hPa SW 11.1 km/h 16.1 km/h 42% 0 mm 0.0 W/m2
02:18 20.7 °C 7.7 °C 1006 hPa SW 4.7 km/h 9.7 km/h 43% 0 mm 0.0 W/m2
02:29 20.6 °C 7.6 °C 1006.3 hPa Calm     43% 0 mm 0.0 W/m2
02:34 20.5 °C 7.5 °C 1006.3 hPa Calm     43% 0 mm 0.0 W/m2
02:44 20.3 °C 7.6 °C 1006.3 hPa SW 9.7 km/h 11.3 km/h 44% 0 mm 0.0 W/m2
02:54 20.1 °C 7.5 °C 1006 hPa SW 7.9 km/h 12.9 km/h 44% 0 mm 0.0 W/m2
03:09 20.1 °C 7.5 °C 1006 hPa Calm   4.8 km/h 44% 0 mm 0.0 W/m2
03:54 19.7 °C 7.4 °C 1005.6 hPa SW 9.7 km/h 14.5 km/h 45% 0 mm 0.0 W/m2
04:14 19.7 °C 7.4 °C 1005.3 hPa SW 11.1 km/h 17.7 km/h 45% 0 mm 0.0 W/m2
04:25 19.7 °C 7.4 °C 1005.3 hPa SW 7.9 km/h 11.3 km/h 45% 0 mm 0.0 W/m2
04:30 19.6 °C 7.3 °C 1005.3 hPa SW 11.1 km/h 11.3 km/h 45% 0 mm 0.0 W/m2
04:35 19.6 °C 7.3 °C 1005.3 hPa SW 9.7 km/h 12.9 km/h 45% 0 mm 0.0 W/m2
04:55 19.4 °C 7.2 °C 1005.3 hPa SW 7.9 km/h 11.3 km/h 45% 0 mm 0.0 W/m2
05:05 19.4 °C 7.5 °C 1005.3 hPa SW 9.7 km/h 11.3 km/h 46% 0 mm 0.0 W/m2
05:15 19.3 °C 7.4 °C 1005.6 hPa SW 7.9 km/h 11.3 km/h 46% 0 mm 0.0 W/m2
06:05 19.1 °C 6.6 °C 1005.6 hPa SW 9.7 km/h 12.9 km/h 44% 0 mm 0.0 W/m2
06:22 19.2 °C 6.7 °C 1005.6 hPa SW 14.3 km/h 16.1 km/h 44% 0 mm 14.0 W/m2
06:58 19.9 °C 6.3 °C 1006 hPa SW 14.3 km/h 16.1 km/h 41% 0 mm 88.0 W/m2
07:04 19.9 °C 6.6 °C 1006 hPa SW 14.3 km/h 17.7 km/h 42% 0 mm 107.0 W/m2
07:14 20.2 °C 6.9 °C 1006.3 hPa SW 11.1 km/h 16.1 km/h 42% 0 mm 149.0 W/m2
07:25 20.4 °C 6.7 °C 1006.3 hPa SW 11.1 km/h 12.9 km/h 41% 0 mm 192.0 W/m2
07:38 20.9 °C 6.4 °C 1006.3 hPa SW 14.3 km/h 16.1 km/h 39% 0 mm 248.0 W/m2
07:47 21.3 °C 6 °C 1006.3 hPa SW 19.5 km/h 19.5 km/h 37% 0 mm 287.0 W/m2
07:53 21.4 °C 6.1 °C 1006.3 hPa SW 14.3 km/h 19.3 km/h 37% 0 mm 306.0 W/m2
08:02 21.8 °C 6.1 °C 1006.3 hPa SW 13 km/h 17.7 km/h 36% 0 mm 341.0 W/m2
08:08 22.1 °C 5.9 °C 1006.3 hPa SW 14.3 km/h 19.3 km/h 35% 0 mm 360.0 W/m2
08:15 22.2 °C 6 °C 1006.3 hPa SW 20.9 km/h 20.9 km/h 35% 0 mm 380.0 W/m2
08:27 22.6 °C 5.9 °C 1006.3 hPa SW 19.5 km/h 20.9 km/h 34% 0 mm 413.0 W/m2
08:41 23.2 °C 6 °C 1006.3 hPa SW 14.3 km/h 17.7 km/h 33% 0 mm 466.0 W/m2
08:50 23.6 °C 5.5 °C 1006.3 hPa SW 14.3 km/h 19.3 km/h 31% 0 mm 503.0 W/m2
08:58 24.1 °C 5.4 °C 1006.3 hPa SW 19.5 km/h 19.5 km/h 30% 0 mm 538.0 W/m2
09:08 24.4 °C 5.7 °C 1006.3 hPa SW 16.3 km/h 19.3 km/h 30% 0 mm 571.0 W/m2
09:18 25.1 °C 5.8 °C 1006.3 hPa SW 14.3 km/h 19.3 km/h 29% 0 mm 605.0 W/m2
09:24 25.1 °C 5.8 °C 1006.3 hPa SW 13 km/h 19.3 km/h 29% 0 mm 619.0 W/m2
09:30 25.1 °C 5.3 °C 1006.3 hPa SW 17.7 km/h 19.3 km/h 28% 0 mm 635.0 W/m2
09:41 25.7 °C 5.8 °C 1006 hPa SW 17.7 km/h 22.5 km/h 28% 0 mm 666.0 W/m2
09:53 25.9 °C 5.5 °C 1006 hPa SW 16.3 km/h 20.9 km/h 27% 0 mm 694.0 W/m2
10:07 26.6 °C 5 °C 1006 hPa SW 16.3 km/h 24.1 km/h 25% 0 mm 737.0 W/m2
10:17 27.1 °C 5.4 °C 1006 hPa SW 13 km/h 20.9 km/h 25% 0 mm 765.0 W/m2
10:27 27.3 °C 5 °C 1006 hPa SW 14.3 km/h 22.5 km/h 24% 0 mm 789.0 W/m2
10:37 28 °C 4.9 °C 1006 hPa SW 14.3 km/h 20.9 km/h 23% 0 mm 814.0 W/m2
10:47 28.4 °C 4.6 °C 1006 hPa SW 17.7 km/h 24.1 km/h 22% 0 mm 835.0 W/m2
10:58 28.8 °C 5 °C 1006 hPa SW 17.7 km/h 24.1 km/h 22% 0 mm 860.0 W/m2
11:11 29.3 °C 5.4 °C 1006 hPa SW 13 km/h 20.9 km/h 22% 0 mm 888.0 W/m2
11:35 30.6 °C 4.3 °C 1005.6 hPa SW 20.9 km/h 24.1 km/h 19% 0 mm 925.0 W/m2
11:49 31.1 °C 3.2 °C 1005.6 hPa SW 17.7 km/h 20.9 km/h 17% 0 mm 944.0 W/m2
12:19 32.1 °C 2.2 °C 1005.3 hPa SW 17.7 km/h 19.3 km/h 15% 0 mm 974.0 W/m2
12:33 32.7 °C 1.7 °C 1005.3 hPa SW 22.7 km/h 22.7 km/h 14% 0 mm 984.0 W/m2
12:57 33.5 °C 2.3 °C 1005 hPa SSW 17.7 km/h 25.7 km/h 14% 0 mm 988.0 W/m2
13:09 33.4 °C 2.3 °C 1005 hPa SSW 16.3 km/h 24.1 km/h 14% 0 mm 984.0 W/m2
13:24 33.6 °C 2.4 °C 1004.6 hPa South 7.9 km/h 22.5 km/h 14% 0 mm 986.0 W/m2
13:39 34.2 °C 3.9 °C 1004.6 hPa SSW 7.9 km/h 19.3 km/h 15% 0 mm 981.0 W/m2
13:54 34.4 °C 3.1 °C 1004.3 hPa SSW 16.3 km/h 20.9 km/h 14% 0 mm 967.0 W/m2
14:10 34.6 °C 3.2 °C 1004.3 hPa SW 14.3 km/h 25.7 km/h 14% 0 mm 954.0 W/m2
14:24 35.1 °C 3.6 °C 1003.9 hPa SSW 22.7 km/h 22.7 km/h 14% 0 mm 935.0 W/m2
14:40 35.2 °C 2.6 °C 1003.6 hPa WSW 14.3 km/h 27.4 km/h 13% 0 mm 911.0 W/m2
14:55 35.2 °C 3.7 °C 1003.6 hPa SW 1.4 km/h 9.7 km/h 14% 0 mm 884.0 W/m2
15:10 35.6 °C 2.9 °C 1003.3 hPa SSW 14.3 km/h 25.7 km/h 13% 0 mm 853.0 W/m2
15:18 35.7 °C 3 °C 1003.3 hPa SSW 16.3 km/h 16.3 km/h 13% 0 mm 833.0 W/m2
15:46 35.9 °C 3.2 °C 1002.9 hPa SSW 17.7 km/h 20.9 km/h 13% 0 mm 770.0 W/m2
16:01 35.9 °C 5.2 °C 1002.6 hPa SSW 20.9 km/h 24.1 km/h 15% 0 mm 728.0 W/m2
16:16 35.8 °C 5.1 °C 1002.3 hPa SSW 14.3 km/h 17.7 km/h 15% 0 mm 686.0 W/m2
16:30 35.7 °C 6 °C 1002.3 hPa SSW 16.3 km/h 20.9 km/h 16% 0 mm 642.0 W/m2
16:39 35.7 °C 6 °C 1001.9 hPa SSW 13 km/h 20.9 km/h 16% 0 mm 610.0 W/m2
16:47 36.1 °C 5.4 °C 1001.9 hPa SSW 13 km/h 25.7 km/h 15% 0 mm 578.0 W/m2
17:03 35.9 °C 5.2 °C 1001.9 hPa South 13 km/h 19.3 km/h 15% 0 mm 527.0 W/m2
17:12 35.8 °C 4.2 °C 1001.9 hPa SSW 16.3 km/h 25.7 km/h 14% 0 mm 496.0 W/m2
17:23 35.8 °C 3.1 °C 1001.6 hPa SSW 25.9 km/h 32.2 km/h 13% 0 mm 461.0 W/m2
17:30 35.8 °C 3.1 °C 1001.6 hPa South 24.1 km/h 27.4 km/h 13% 0 mm 443.0 W/m2
17:57 35.5 °C 0.5 °C 1001.6 hPa South 28.8 km/h 30.6 km/h 11% 0 mm 355.0 W/m2
18:07 35.2 °C 0.3 °C 1001.6 hPa South 22.7 km/h 30.6 km/h 11% 0 mm 302.0 W/m2
18:13 35.1 °C 0.2 °C 1001.6 hPa SSE 19.5 km/h 33.8 km/h 11% 0 mm 287.0 W/m2
18:31 34.7 °C -0.1 °C 1001.6 hPa SSE 20.9 km/h 29 km/h 11% 0 mm 229.0 W/m2
18:42 34.6 °C -0.2 °C 1001.6 hPa SSE 19.5 km/h 27.4 km/h 11% 0 mm 186.0 W/m2
18:57 34.3 °C -0.4 °C 1001.9 hPa South 22.7 km/h 30.6 km/h 11% 0 mm 116.0 W/m2
19:11 33.9 °C -2 °C 1001.9 hPa South 17.7 km/h 29 km/h 10% 0 mm 65.0 W/m2
19:21 33.7 °C -2.1 °C 1001.9 hPa South 22.7 km/h 32.2 km/h 10% 0 mm 25.0 W/m2
19:55 32.1 °C 2.2 °C 1002.6 hPa South 24.1 km/h 37 km/h 15% 0 mm 0.0 W/m2
20:07 31.6 °C 4.4 °C 1002.6 hPa SSW 32 km/h 32.2 km/h 18% 0 mm 0.0 W/m2
20:32 30.6 °C 3.6 °C 1002.9 hPa SSW 20.9 km/h 37 km/h 18% 0 mm 0.0 W/m2
21:13 29.1 °C 3.9 °C 1003.6 hPa SSW 24.1 km/h 27.4 km/h 20% 0 mm 0.0 W/m2
21:23 28.7 °C 3.5 °C 1003.6 hPa SSW 19.5 km/h 27.4 km/h 20% 0 mm 0.0 W/m2
21:33 28.4 °C 4 °C 1003.9 hPa SSW 24.1 km/h 24.1 km/h 21% 0 mm 0.0 W/m2
22:05 27.4 °C 3.1 °C 1003.9 hPa South 17.7 km/h 25.7 km/h 21% 0 mm 0.0 W/m2
22:20 27.1 °C 3.6 °C 1004.3 hPa SSW 25.9 km/h 30.6 km/h 22% 0 mm 0.0 W/m2
22:51 26.2 °C 3.4 °C 1004.6 hPa SSW 17.7 km/h 24.1 km/h 23% 0 mm 0.0 W/m2
23:07 25.8 °C 3.7 °C 1004.6 hPa SSW 22.7 km/h 30.6 km/h 24% 0 mm 0.0 W/m2
23:23 25.4 °C 2.8 °C 1004.6 hPa South 22.7 km/h 25.7 km/h 23% 0 mm 0.0 W/m2
23:31 25.1 °C 3.1 °C 1004.6 hPa South 19.5 km/h 20.9 km/h 24% 0 mm 0.0 W/m2
23:39 24.9 °C 3.5 °C 1004.6 hPa South 17.7 km/h 22.5 km/h 25% 0 mm 0.0 W/m2
23:44 24.8 °C 4 °C 1004.6 hPa SSW 13 km/h 29 km/h 26% 0 mm 0.0 W/m2
23:49 24.7 °C 4.4 °C 1004.6 hPa South 16.3 km/h 25.7 km/h 27% 0 mm 0.0 W/m2
23:54 24.6 °C 4.4 °C 1004.6 hPa SSW 20.9 km/h 22.5 km/h 27% 0 mm 0.0 W/m2
23:59 24.5 °C 3.7 °C 1004.6 hPa SSW 19.5 km/h 19.5 km/h 26% 0 mm 0.0 W/m2
Canyon Roadhouse, Fishriver Canyon, Namibia
Compliments of Weather Underground - 2 mb